Latest Weather Observations for Argyle

IDD60801

Issued at 7:41 am CST Monday 1 March 2021 (issued every 10 minutes, with the page automatically refreshed every 10 minutes)

About weather observations | Map of weather stations | Latest weather observations for NT | Other Formats
Station Details ID: 002064 Name: ARGYLE AERODROME Lat: -16.64 Lon: 128.45 Height: 164.0 m
Data from the previous 72 hours. | See also: Recent months at Argyle
Date/Time
CST
Temp
°C
App
Temp
°C
Dew
Point
°C
Rel
Hum
%
Delta-T
°C
Wind Press
QNH
hPa
Press
MSL
hPa
Rain since
9am
mm
Dir  Spd
km/h
Gust
km/h
Spd
kts
Gust
kts
01/07:30am 26.9 28.7 18.7 60 5.3 WSW 7 11 4 6 1010.0 1008.7 0.0
01/07:00am 25.4 27.4 19.1 68 4.1 W 7 9 4 5 1009.9 1008.6 0.0
01/06:30am 25.4 27.1 18.6 66 4.4 WSW 7 9 4 5 1009.6 1008.3 0.0
01/06:00am 26.5 27.8 17.0 56 6.0 SW 6 7 3 4 1009.4 1008.1 0.0
01/05:30am 26.8 27.0 15.8 51 6.8 S 9 11 5 6 1009.0 1007.7 0.0
01/05:00am 27.0 27.2 15.7 50 7.0 SSE 9 11 5 6 1008.8 1007.5 0.0
01/04:30am 26.9 27.9 17.7 57 5.8 SSW 9 13 5 7 1008.7 1007.4 0.0
01/04:00am 27.6 29.0 17.7 54 6.3 SW 7 9 4 5 1008.7 1007.4 0.0
01/03:30am 27.4 28.3 17.6 55 6.2 WSW 9 9 5 5 1008.7 1007.4 0.0
01/03:00am 27.0 28.3 17.5 56 6.0 WNW 7 9 4 5 1008.8 1007.5 0.0
01/02:30am 27.3 28.3 16.9 53 6.5 WNW 7 7 4 4 1009.0 1007.7 0.0
01/02:00am 27.8 28.7 16.7 50 7.0 WNW 7 9 4 5 1009.0 1007.7 0.0
01/01:30am 27.5 28.7 18.2 57 6.0 WNW 9 11 5 6 1009.2 1007.9 0.0
01/01:00am 28.7 28.8 16.6 48 7.6 NNW 11 13 6 7 1009.5 1008.2 0.0
01/12:30am 29.0 31.2 16.5 46 7.9 CALM 0 7 0 4 1009.5 1008.2 0.0
01/12:00am 28.4 31.2 17.9 53 6.7 CALM 0 0 0 0 1009.5 1008.2 0.0
 
Date/Time
CST
Temp
°C
App
Temp
°C
Dew
Point
°C
Rel
Hum
%
Delta-T
°C
Wind Press
QNH
hPa
Press
MSL
hPa
Rain since
9am
mm
Dir  Spd
km/h
Gust
km/h
Spd
kts
Gust
kts
28/11:30pm 29.7 30.1 15.4 42 8.9 W 7 9 4 5 1009.5 1008.2 0.0
28/11:00pm 29.3 29.1 15.8 44 8.4 W 11 13 6 7 1009.5 1008.2 0.0
28/10:30pm 29.5 29.8 17.0 47 7.9 WNW 11 11 6 6 1009.2 1007.9 0.0
28/10:00pm 30.1 30.9 17.2 46 8.2 WNW 9 9 5 5 1008.9 1007.6 0.0
28/09:30pm 30.9 31.3 15.3 38 9.7 NW 7 9 4 5 1008.5 1007.2 0.0
28/09:00pm 31.5 31.9 16.3 40 9.6 WNW 9 9 5 5 1008.2 1006.9 0.0
28/08:30pm 32.2 32.2 15.2 35 10.6 NNW 9 11 5 6 1007.9 1006.6 0.0
28/08:00pm 32.8 32.5 14.4 33 11.3 N 9 11 5 6 1007.3 1006.0 0.0
28/07:30pm 32.9 31.9 13.5 30 11.8 NNE 11 13 6 7 1007.0 1005.7 0.0
28/07:00pm 33.8 33.1 13.3 29 12.5 NNE 9 15 5 8 1006.7 1005.4 0.0
28/06:30pm 35.1 35.2 14.4 29 12.9 NE 7 11 4 6 1006.4 1005.1 0.0
28/06:00pm 36.1 35.5 13.6 26 13.9 NE 9 13 5 7 1006.3 1005.0 0.0
28/05:30pm 36.6 35.5 12.1 23 14.8 NE 9 15 5 8 1006.1 1004.8 0.0
28/05:00pm 36.6 34.8 10.7 21 15.3 NNE 11 19 6 10 1006.3 1005.0 0.0
28/04:30pm 37.6 36.2 10.8 20 16.0 NNE 9 17 5 9 1006.5 1005.2 0.0
28/04:00pm 37.4 37.1 12.8 23 15.1 ENE 6 11 3 6 1006.8 1005.5 0.0
28/03:30pm 37.8 37.3 13.8 24 15.0 NE 9 15 5 8 1006.9 1005.6 0.0
28/03:00pm 37.2 36.9 14.5 26 14.2 N 9 17 5 9 1007.3 1006.0 0.0
28/02:30pm 37.0 35.9 13.1 24 14.7 E 11 15 6 8 1007.7 1006.4 0.0
28/02:00pm 37.0 37.5 14.9 27 13.9 E 6 11 3 6 1008.1 1006.8 0.0
28/01:30pm 36.7 36.9 14.1 26 14.1 SW 6 11 3 6 1008.6 1007.3 0.0
28/01:00pm 36.5 35.6 12.7 24 14.5 ESE 9 15 5 8 1008.8 1007.5 0.0
28/12:30pm 36.3 36.3 14.3 27 13.7 S 7 15 4 8 1009.2 1007.9 0.0
28/12:00pm 35.8 36.3 15.5 29 12.8 SSW 7 13 4 7 1009.5 1008.2 0.0
28/11:30am 34.8 35.5 16.1 32 11.9 S 7 13 4 7 1009.8 1008.5 0.0
28/11:00am 34.1 34.8 16.0 34 11.5 SSW 7 13 4 7 1010.3 1009.0 0.0
28/10:30am 32.7 34.6 18.5 43 9.3 SW 6 9 3 5 1010.4 1009.1 0.0
28/10:00am 31.8 34.2 18.7 45 8.6 WSW 4 9 2 5 1010.3 1009.0 0.0
28/09:30am 30.8 33.8 18.5 47 8.0 CALM 0 7 0 4 1010.0 1008.7 0.0
28/09:00am 29.4 32.9 20.3 58 6.0 E 2 7 1 4 1009.9 1008.6 0.0
28/08:30am 28.4 31.6 21.2 65 4.8 E 6 7 3 4 1009.4 1008.1 0.0
28/08:00am 27.4 30.1 20.2 65 4.7 SE 6 6 3 3 1009.0 1007.7 0.0
28/07:30am 26.3 28.8 20.2 69 4.0 SSE 7 9 4 5 1008.7 1007.4 0.0
28/07:00am 24.8 27.3 20.3 76 2.9 E 7 7 4 4 1008.3 1007.0 0.0
28/06:30am 24.8 27.3 20.3 76 3.0 SE 7 9 4 5 1008.0 1006.7 0.0
28/06:00am 27.1 29.5 19.7 64 4.8 SW 6 9 3 5 1007.6 1006.3 0.0
28/05:30am 26.7 29.1 20.1 67 4.3 SW 7 9 4 5 1007.5 1006.2 0.0
28/05:00am 27.0 28.6 19.9 65 4.7 WSW 11 13 6 7 1007.4 1006.1 0.0
28/04:30am 27.0 29.4 19.6 64 4.8 W 6 7 3 4 1007.5 1006.2 0.0
28/04:00am 26.9 28.7 19.5 64 4.8 N 9 11 5 6 1007.6 1006.3 0.0
28/03:30am 26.3 29.1 20.4 70 3.9 WNW 6 7 3 4 1007.7 1006.4 0.0
28/03:00am 26.1 29.7 19.7 68 4.2 CALM 0 0 0 0 1007.7 1006.4 0.0
28/02:30am 27.3 29.6 19.9 64 4.9 WNW 7 9 4 5 1007.9 1006.6 0.0
28/02:00am 28.9 30.3 18.7 54 6.6 SW 9 11 5 6 1007.9 1006.6 0.0
28/01:30am 29.0 30.7 18.4 52 6.8 SSW 7 9 4 5 1008.2 1006.9 0.0
28/01:00am 28.6 31.5 18.1 53 6.7 CALM 0 0 0 0 1008.3 1007.0 0.0
28/12:30am 28.8 30.3 18.0 52 6.9 WSW 7 11 4 6 1008.6 1007.3 0.0
28/12:00am 30.3 31.4 17.0 44 8.4 WSW 7 11 4 6 1008.8 1007.5 0.0
 
Date/Time
CST
Temp
°C
App
Temp
°C
Dew
Point
°C
Rel
Hum
%
Delta-T
°C
Wind Press
QNH
hPa
Press
MSL
hPa
Rain since
9am
mm
Dir  Spd
km/h
Gust
km/h
Spd
kts
Gust
kts
27/11:30pm 30.7 30.7 16.3 42 9.1 SSW 11 17 6 9 1008.9 1007.6 0.0
27/11:00pm 30.0 32.5 20.3 56 6.4 W 7 9 4 5 1008.5 1007.2 0.0
27/10:30pm 30.8 33.1 19.8 52 7.3 WSW 7 7 4 4 1008.3 1007.0 0.0
27/10:00pm 31.3 33.4 19.3 49 7.9 WSW 7 9 4 5 1007.9 1006.6 0.0
27/09:30pm 31.3 33.7 19.6 49 7.7 W 6 7 3 4 1007.6 1006.3 0.0
27/09:00pm 31.3 33.7 19.6 49 7.7 NW 6 7 3 4 1007.2 1005.9 0.0
27/08:30pm 32.0 32.6 16.7 40 9.7 N 9 9 5 5 1006.9 1005.6 0.0
27/08:00pm 32.0 32.4 16.3 39 9.9 NNE 9 11 5 6 1006.5 1005.2 0.0
27/07:30pm 32.1 32.2 16.4 39 10.0 NNE 11 13 6 7 1006.2 1004.9 0.0
27/07:00pm 32.1 32.2 16.4 39 9.9 NNE 11 13 6 7 1005.8 1004.5 0.0
27/06:30pm 33.2 33.4 15.7 35 11.0 NE 9 13 5 7 1005.4 1004.1 0.0
27/06:00pm 34.0 33.0 13.5 29 12.5 NNE 11 15 6 8 1005.3 1004.0 0.0
27/05:30pm 34.6 33.4 12.9 27 13.2 NNE 11 17 6 9 1005.3 1004.0 0.0
27/05:00pm 36.0 34.2 10.9 22 14.9 NNE 11 17 6 9 1005.3 1004.0 0.0
27/04:30pm 35.7 33.9 10.7 22 14.8 NE 11 17 6 9 1005.3 1004.0 0.0
27/04:00pm 36.0 33.6 8.7 19 15.6 NE 11 17 6 9 1005.4 1004.1 0.0
27/03:30pm 36.5 34.6 10.6 21 15.3 N 11 20 6 11 1005.7 1004.4 0.0
27/03:00pm 36.6 35.1 10.7 21 15.3 ENE 9 19 5 10 1006.0 1004.7 0.0
27/02:30pm 36.8 36.0 11.6 22 15.2 N 7 17 4 9 1006.2 1004.9 0.0
27/02:00pm 36.1 34.7 11.0 22 14.9 E 9 13 5 7 1006.6 1005.3 0.0
27/01:30pm 36.3 35.9 12.5 24 14.5 SW 6 9 3 5 1007.1 1005.8 0.0
27/01:00pm 35.6 35.4 13.7 27 13.5 N 7 19 4 10 1007.5 1006.2 0.0
27/12:30pm 35.4 34.6 13.0 26 13.7 SE 9 13 5 7 1007.8 1006.5 0.0
27/12:00pm 34.3 35.4 17.1 36 11.1 E 7 11 4 6 1008.2 1006.9 0.0
27/11:30am 33.6 35.1 17.7 38 10.3 ESE 6 9 3 5 1008.5 1007.2 0.0
27/11:00am 32.9 34.0 17.9 41 9.7 NW 9 13 5 7 1008.8 1007.5 0.0
27/10:30am 32.6 34.7 20.2 48 8.3 SSE 9 13 5 7 1008.8 1007.5 0.0
27/10:00am 31.5 33.9 20.1 50 7.6 SSE 7 13 4 7 1008.8 1007.5 0.0
27/09:30am 31.1 34.2 21.0 55 6.8 S 6 9 3 5 1008.7 1007.4 0.0
27/09:00am 29.8 32.5 20.6 57 6.1 S 7 11 4 6 1008.6 1007.3 0.0
27/08:30am 28.5 30.5 20.0 60 5.6 S 9 13 5 7 1008.3 1007.0 0.0
27/08:00am 27.9 31.0 21.4 67 4.4 S 7 11 4 6 1007.9 1006.6 0.0
27/07:30am 26.7 30.7 22.8 79 2.7 ESE 6 7 3 4 1007.6 1006.3 0.0
27/07:00am 26.4 30.2 22.7 80 2.5 SSE 7 9 4 5 1007.4 1006.1 0.0
27/06:30am 27.3 31.8 22.9 77 3.0 SW 4 6 2 3 1007.1 1005.8 0.0
27/06:00am 28.0 32.1 22.9 74 3.5 NW 6 9 3 5 1006.8 1005.5 0.0
27/05:30am 28.3 33.3 22.5 71 4.0 CALM 0 0 0 0 1006.6 1005.3 0.0
27/05:00am 28.5 32.5 22.7 71 4.0 N 6 11 3 6 1006.3 1005.0 0.0
27/04:30am 27.8 33.1 23.0 75 3.3 CALM 0 0 0 0 1006.2 1004.9 0.0
27/04:00am 28.5 33.0 21.5 66 4.7 CALM 0 4 0 2 1006.2 1004.9 0.0
27/03:30am 28.6 31.7 21.1 64 5.0 WNW 6 7 3 4 1006.3 1005.0 0.0
27/03:00am 28.8 31.8 21.3 64 5.0 WSW 7 11 4 6 1006.5 1005.2 0.0
27/02:30am 29.1 33.0 20.3 59 5.8 CALM 0 0 0 0 1006.7 1005.4 0.0
27/02:00am 29.5 32.3 20.4 58 6.0 S 6 7 3 4 1007.0 1005.7 0.0
27/01:30am 29.8 34.1 21.2 60 5.8 CALM 0 0 0 0 1007.2 1005.9 0.0
27/01:00am 29.2 32.9 21.4 63 5.2 SSE 4 7 2 4 1007.2 1005.9 0.0
27/12:30am 28.9 32.0 21.1 62 5.2 NNE 6 9 3 5 1007.2 1005.9 0.0
27/12:00am 30.0 32.5 20.3 56 6.4 NW 7 9 4 5 1007.2 1005.9 0.0
 
Date/Time
CST
Temp
°C
App
Temp
°C
Dew
Point
°C
Rel
Hum
%
Delta-T
°C
Wind Press
QNH
hPa
Press
MSL
hPa
Rain since
9am
mm
Dir  Spd
km/h
Gust
km/h
Spd
kts
Gust
kts
26/11:30pm 30.6 32.2 18.3 47 8.0 NNW 7 11 4 6 1007.0 1005.7 0.0
26/11:00pm 32.1 32.2 16.4 39 9.9 NNE 11 17 6 9 1006.9 1005.6 0.0
26/10:30pm 30.5 33.5 21.9 60 5.9 S 9 13 5 7 1007.2 1005.9 0.0
26/10:00pm 31.1 34.1 21.3 56 6.6 N 7 7 4 4 1006.5 1005.2 0.0
26/09:30pm 30.9 33.9 20.8 55 6.8 NNW 6 7 3 4 1006.2 1004.9 0.0
26/09:00pm 31.4 34.3 20.7 53 7.2 NNW 6 7 3 4 1005.9 1004.6 0.0
26/08:30pm 31.8 34.2 20.1 50 7.8 N 7 9 4 5 1005.7 1004.4 0.0
26/08:00pm 31.9 34.2 19.9 49 8.0 N 7 9 4 5 1005.3 1004.0 0.0
26/07:30pm 32.1 33.3 18.3 44 9.0 NNE 9 11 5 6 1004.8 1003.5 0.0
26/07:00pm 33.0 33.8 17.2 39 10.1 NNE 9 13 5 7 1004.4 1003.1 0.0
26/06:30pm 34.1 34.4 16.0 34 11.5 NE 9 11 5 6 1004.1 1002.8 0.0
26/06:00pm 35.0 35.8 16.3 32 11.9 NE 7 13 4 7 1004.0 1002.7 0.0
26/05:30pm 35.0 34.8 15.8 31 12.2 NNE 11 19 6 10 1003.7 1002.4 0.0
26/05:00pm 35.2 35.1 15.0 30 12.7 NE 9 17 5 9 1003.8 1002.5 0.0
26/04:30pm 35.7 35.2 15.9 30 12.6 NNE 13 20 7 11 1003.9 1002.6 0.0
26/04:00pm 35.8 35.1 14.4 27 13.3 NNE 11 20 6 11 1004.1 1002.8 0.0
26/03:30pm 36.4 35.9 16.0 29 13.1 N 13 19 7 10 1004.2 1002.9 0.0
26/03:00pm 36.4 36.5 14.4 27 13.7 NE 7 13 4 7 1004.7 1003.4 0.0
26/02:30pm 35.8 35.0 13.9 27 13.6 NE 11 17 6 9 1005.0 1003.7 0.0
26/02:00pm 35.3 35.1 14.6 29 12.9 NE 9 17 5 9 1005.5 1004.3 0.0
26/01:30pm 35.4 36.5 16.7 33 12.0 N 6 11 3 6 1006.0 1004.7 0.0
26/01:00pm 35.3 36.8 18.0 36 11.3 ENE 7 13 4 7 1006.4 1005.1 0.0
26/12:30pm 34.0 35.3 17.2 36 10.8 SSE 6 9 3 5 1006.8 1005.5 0.0
26/12:00pm 34.0 35.9 18.9 41 10.0 SSE 7 20 4 11 1007.2 1005.9 0.0
26/11:30am 33.2 36.0 20.4 47 8.6 SW 6 13 3 7 1007.4 1006.1 0.0
26/11:00am 32.4 34.6 19.6 46 8.5 ESE 7 11 4 6 1007.6 1006.3 0.0
26/10:30am 31.6 34.1 19.9 50 7.8 SSE 6 9 3 5 1007.7 1006.4 0.0
26/10:00am 31.2 34.2 20.8 54 7.0 E 6 13 3 7 1007.7 1006.4 0.0
26/09:30am 30.4 32.6 19.7 52 7.1 E 7 9 4 5 1007.7 1006.4 0.0

Other formats

Comma delimited format used in spreadsheet applications
http://www.bom.gov.au/fwo/IDD60801/IDD60801.94217.axf

JavaScript Object Notation format (JSON) in row-major order
http://www.bom.gov.au/fwo/IDD60801/IDD60801.94217.json

Data quality

Most of these data are generated automatically and are frequently updated. Quality checks on data are not normally performed. It is possible for incorrect values to appear. Refer to information at About Latest Weather Observations and please check the disclaimer before using these data.